Senin
| Ora | Descriere | Temp | Se simte | Precipitatii | Umiditate | Vant |
|---|---|---|---|---|---|---|
| 00:00 | 15.2° | 15.3° | 0% | 58% | S 7.6 KM/H | |
| 01:00 | Senin | 14.4° | 14.2° | 0% | 60% | S 7.6 KM/H |
| 02:00 | Senin | 14.5° | 14.6° | 0% | 59% | S 6.5 KM/H |
| 03:00 | Senin | 13.4° | 13.2° | 0% | 62% | S 6.5 KM/H |
| 04:00 | Senin | 13.3° | 13.4° | 0% | 62% | S 5.4 KM/H |
| 05:00 | Senin | 15.3° | 13.6° | 0% | 41% | SSE 5 KM/H |
| 06:00 | Senin | 13.1° | 13.3° | 0% | 64% | SSW 5 KM/H |
| 07:00 | Senin | 13.8° | 14.1° | 0% | 67% | S 4.7 KM/H |
| 08:00 | Senin | 15.9° | 16° | 0% | 61% | SSE 5.4 KM/H |
| 09:00 | Senin | 17.3° | 17.3° | 0% | 58% | SSE 7.6 KM/H |
| 10:00 | Senin | 18.7° | 18.7° | 0% | 54% | S 7.9 KM/H |
| 11:00 | Senin | 20.7° | 20.7° | 0% | 50% | SSW 6.8 KM/H |
| 12:00 | Senin | 22.8° | 24.5° | 0% | 45% | SSW 4.7 KM/H |
| 13:00 | Senin | 24.3° | 24.9° | 0% | 40% | SW 3.6 KM/H |
| 14:00 | Senin | 25.1° | 25.1° | 0% | 35% | W 0.7 KM/H |
| 15:00 | Senin | 25.3° | 25.1° | 0% | 33% | ENE 1.8 KM/H |
| 16:00 | Senin | 25.1° | 24.9° | 0% | 32% | ENE 3.2 KM/H |
| 17:00 | Senin | 24.9° | 24.8° | 0% | 32% | E 4 KM/H |
| 18:00 | Senin | 24.5° | 24.7° | 0% | 34% | ESE 5.4 KM/H |
| 19:00 | Senin | 22.2° | 24.4° | 0% | 47% | SE 8.3 KM/H |
| 20:00 | Senin | 18.9° | 18.9° | 0% | 54% | SSE 11.2 KM/H |
| 21:00 | Senin | 16.8° | 16.8° | 0% | 58% | S 11.9 KM/H |
| 22:00 | Senin | 15.9° | 15.9° | 0% | 59% | SSW 10.8 KM/H |
| 23:00 | Senin | 15.2° | 15.2° | 0% | 60% | SSW 10.1 KM/H |